createdAt,value
2022-08-17T00:01:26.205Z,6.75
2022-08-17T00:03:54.762Z,7.00
2022-08-17T00:06:24.922Z,7.93
2022-08-17T00:09:00.585Z,7.03
2022-08-17T00:11:30.983Z,7.60
2022-08-17T00:14:05.129Z,7.60
2022-08-17T00:16:56.291Z,7.47
2022-08-17T00:19:24.446Z,6.63
2022-08-17T00:22:32.676Z,7.05
2022-08-17T00:24:39.922Z,7.70
2022-08-17T00:27:06.407Z,7.72
2022-08-17T00:29:32.945Z,7.68
2022-08-17T00:32:01.187Z,7.97
2022-08-17T00:37:14.069Z,7.18
2022-08-17T00:39:40.865Z,8.25
2022-08-17T00:42:18.867Z,8.07
2022-08-17T00:44:46.172Z,8.25
2022-08-17T00:47:13.277Z,8.20
2022-08-17T00:49:39.999Z,8.43
2022-08-17T00:52:15.648Z,8.40
2022-08-17T00:54:46.987Z,8.23
2022-08-17T00:57:23.399Z,8.30
2022-08-17T01:00:02.476Z,8.52
2022-08-17T01:02:40.470Z,8.07
2022-08-17T01:05:15.314Z,8.77
2022-08-17T01:07:42.984Z,9.70
2022-08-17T01:10:59.175Z,9.38
2022-08-17T01:13:02.413Z,8.82
2022-08-17T01:15:36.012Z,9.52
2022-08-17T01:18:05.361Z,9.30
2022-08-17T01:20:32.543Z,8.80
2022-08-17T01:23:20.770Z,8.60
2022-08-17T01:25:56.651Z,9.23
2022-08-17T01:28:52.438Z,9.35
2022-08-17T01:31:12.941Z,9.32
2022-08-17T01:33:39.520Z,9.20
2022-08-17T01:36:07.476Z,9.32
2022-08-17T01:38:35.565Z,8.52
2022-08-17T01:41:08.004Z,9.77
2022-08-17T01:43:45.209Z,9.23
2022-08-17T01:46:16.031Z,9.23
2022-08-17T01:48:43.633Z,9.15
2022-08-17T01:51:10.291Z,8.37
2022-08-17T01:53:41.252Z,8.95
2022-08-17T01:56:13.827Z,8.90
2022-08-17T01:58:42.087Z,9.15
2022-08-17T02:01:10.105Z,8.98
2022-08-17T02:03:38.044Z,8.27
2022-08-17T02:06:06.096Z,9.65
2022-08-17T02:09:01.932Z,9.25
2022-08-17T02:11:32.296Z,9.10
2022-08-17T02:14:03.256Z,9.75
2022-08-17T02:16:36.678Z,9.10
2022-08-17T02:19:07.279Z,9.27
2022-08-17T02:21:34.222Z,9.55
2022-08-17T02:24:00.845Z,9.57
2022-08-17T02:26:27.408Z,10.60
2022-08-17T02:28:54.322Z,10.65
2022-08-17T02:31:21.344Z,10.35
2022-08-17T02:33:56.789Z,11.43
2022-08-17T02:36:31.351Z,10.98
2022-08-17T02:38:58.608Z,10.38
2022-08-17T02:41:25.300Z,10.90
2022-08-17T02:43:53.147Z,10.18
2022-08-17T02:46:19.704Z,11.40
2022-08-17T02:48:46.371Z,10.95
2022-08-17T02:51:12.876Z,10.35
2022-08-17T02:53:39.391Z,11.55
2022-08-17T02:56:06.108Z,10.48
2022-08-17T02:58:35.579Z,11.18
2022-08-17T03:01:05.881Z,10.73
2022-08-17T03:03:32.639Z,11.68
2022-08-17T03:05:59.195Z,11.63
2022-08-17T03:08:25.841Z,11.18
2022-08-17T03:10:52.366Z,11.98
2022-08-17T03:13:19.035Z,11.85
2022-08-17T03:15:46.427Z,12.90
2022-08-17T03:18:24.076Z,11.40
2022-08-17T03:20:52.295Z,11.90
2022-08-17T03:23:18.807Z,11.85
2022-08-17T03:25:52.864Z,10.88
2022-08-17T03:28:20.454Z,12.05
2022-08-17T03:30:47.000Z,12.23
2022-08-17T03:33:13.762Z,11.50
2022-08-17T03:35:41.072Z,11.68
2022-08-17T03:38:10.339Z,12.05
2022-08-17T03:40:58.204Z,11.48
2022-08-17T03:43:23.613Z,11.18
2022-08-17T03:46:28.979Z,10.70
2022-08-17T03:49:14.591Z,10.60
2022-08-17T03:51:59.906Z,10.80
2022-08-17T03:54:44.661Z,10.93
2022-08-17T03:57:12.260Z,11.43
2022-08-17T03:59:39.460Z,11.57
2022-08-17T04:02:19.081Z,10.57
2022-08-17T04:04:45.683Z,11.30
2022-08-17T04:07:12.334Z,12.15
2022-08-17T04:09:38.819Z,11.00
2022-08-17T04:12:05.778Z,10.85
2022-08-17T04:14:39.280Z,10.43
2022-08-17T04:17:21.056Z,10.88
2022-08-17T04:19:47.555Z,10.57
2022-08-17T04:22:32.945Z,10.98
2022-08-17T04:25:06.631Z,10.32
2022-08-17T04:27:33.429Z,11.18
2022-08-17T04:30:00.327Z,10.18
2022-08-17T04:33:04.017Z,10.02
2022-08-17T04:35:18.741Z,9.60
2022-08-17T04:37:45.569Z,10.57
2022-08-17T04:40:30.709Z,11.15
2022-08-17T04:43:10.739Z,10.43
2022-08-17T04:45:57.303Z,9.80
2022-08-17T04:48:35.486Z,9.60
2022-08-17T04:51:09.794Z,9.25
2022-08-17T04:53:37.750Z,10.30
2022-08-17T04:56:05.274Z,10.10
2022-08-17T04:58:33.194Z,10.90
2022-08-17T05:00:59.944Z,10.43
2022-08-17T05:03:26.574Z,10.05
2022-08-17T05:05:53.706Z,10.05
2022-08-17T05:08:21.575Z,10.60
2022-08-17T05:10:49.087Z,10.38
2022-08-17T05:13:27.963Z,9.53
2022-08-17T05:15:59.690Z,10.38
2022-08-17T05:18:27.256Z,10.15
2022-08-17T05:20:53.958Z,9.95
2022-08-17T05:23:22.100Z,10.10
2022-08-17T05:25:52.071Z,10.52
2022-08-17T05:28:24.164Z,9.65
2022-08-17T05:30:56.717Z,9.95
2022-08-17T05:33:26.375Z,10.20
2022-08-17T05:35:54.840Z,9.45
2022-08-17T05:40:49.836Z,8.88
2022-08-17T05:43:38.276Z,9.27
2022-08-17T05:46:16.144Z,8.95
2022-08-17T05:48:46.014Z,9.00
2022-08-17T05:51:27.529Z,9.52
2022-08-17T05:54:31.775Z,8.70
2022-08-17T05:57:10.284Z,8.45
2022-08-17T05:59:48.899Z,9.07
2022-08-17T06:02:48.295Z,8.68
2022-08-17T06:05:23.464Z,8.23
2022-08-17T06:08:00.007Z,8.15
2022-08-17T06:10:37.861Z,8.32
2022-08-17T06:13:23.125Z,7.82
2022-08-17T06:16:33.521Z,8.15
2022-08-17T06:19:15.987Z,7.40
2022-08-17T06:24:53.186Z,6.70
2022-08-17T06:27:35.678Z,6.90
2022-08-17T06:30:11.511Z,6.90
2022-08-17T06:32:41.284Z,7.00
2022-08-17T06:35:10.473Z,6.93
2022-08-17T06:37:50.544Z,7.40
2022-08-17T06:40:38.259Z,6.85
2022-08-17T06:43:22.995Z,7.93
2022-08-17T06:46:13.457Z,7.30
2022-08-17T06:49:00.916Z,6.40
2022-08-17T06:51:36.325Z,6.40
2022-08-17T06:54:11.201Z,6.57
2022-08-17T06:56:59.559Z,6.40
2022-08-17T06:59:55.030Z,5.90
2022-08-17T07:02:51.056Z,5.72
2022-08-17T07:05:32.195Z,5.57
2022-08-17T07:08:09.222Z,5.68
2022-08-17T07:10:46.156Z,5.43
2022-08-17T07:13:31.300Z,6.00
2022-08-17T07:16:07.573Z,5.03
2022-08-17T07:18:34.204Z,5.28
2022-08-17T07:21:26.173Z,5.15
2022-08-17T07:24:30.666Z,5.30
2022-08-17T07:27:20.847Z,5.22
2022-08-17T07:29:56.601Z,5.20
2022-08-17T07:32:27.528Z,4.93
2022-08-17T07:35:11.610Z,5.00
2022-08-17T07:37:53.140Z,5.03
2022-08-17T07:40:33.428Z,5.20
2022-08-17T07:43:03.299Z,5.07
2022-08-17T07:45:52.122Z,5.32
2022-08-17T07:48:25.853Z,5.75
2022-08-17T07:50:53.290Z,5.00
2022-08-17T07:53:25.269Z,5.72
2022-08-17T07:55:53.567Z,5.05
2022-08-17T07:58:23.436Z,5.18
2022-08-17T08:01:18.292Z,5.68
2022-08-17T08:03:46.219Z,5.32
2022-08-17T08:06:24.696Z,5.20
2022-08-17T08:08:54.910Z,5.40
2022-08-17T08:11:30.537Z,4.88
2022-08-17T08:14:20.546Z,5.30
2022-08-17T08:17:22.429Z,4.93
2022-08-17T08:19:48.924Z,4.30
2022-08-17T08:22:26.257Z,4.35
2022-08-17T08:25:07.266Z,4.83
2022-08-17T08:27:45.868Z,4.43
2022-08-17T08:30:19.164Z,4.32
2022-08-17T08:33:17.231Z,4.22
2022-08-17T08:35:55.332Z,4.50
2022-08-17T08:41:40.765Z,3.65
2022-08-17T08:44:59.926Z,4.97
2022-08-17T08:47:46.833Z,4.47
2022-08-17T08:50:37.446Z,4.32
2022-08-17T08:53:11.731Z,4.35
2022-08-17T08:56:05.868Z,4.10
2022-08-17T08:58:48.322Z,4.10
2022-08-17T09:01:42.136Z,3.90
2022-08-17T09:04:26.269Z,4.47
2022-08-17T09:07:24.199Z,3.95
2022-08-17T09:10:15.219Z,3.85
2022-08-17T09:12:58.910Z,4.28
2022-08-17T09:15:44.810Z,4.35
2022-08-17T09:19:01.184Z,4.63
2022-08-17T09:21:18.388Z,4.20
2022-08-17T09:24:00.163Z,4.60
2022-08-17T09:27:02.686Z,4.30
2022-08-17T09:29:36.749Z,4.85
2022-08-17T09:32:41.166Z,4.20
2022-08-17T09:35:44.284Z,4.07
2022-08-17T09:38:33.360Z,4.60
2022-08-17T09:41:08.613Z,4.35
2022-08-17T09:44:23.425Z,4.70
2022-08-17T09:46:53.044Z,4.80
2022-08-17T09:49:30.895Z,4.80
2022-08-17T09:52:08.502Z,4.70
2022-08-17T09:54:40.879Z,4.82
2022-08-17T09:57:37.851Z,5.40
2022-08-17T10:00:11.920Z,4.80
2022-08-17T10:02:54.477Z,4.38
2022-08-17T10:05:23.264Z,4.78
2022-08-17T10:08:09.539Z,4.97
2022-08-17T10:11:05.729Z,4.97
2022-08-17T10:13:41.502Z,4.47
2022-08-17T10:16:26.121Z,4.72
2022-08-17T10:19:10.279Z,4.28
2022-08-17T10:22:01.035Z,5.30
2022-08-17T10:25:23.263Z,4.20
2022-08-17T10:28:01.667Z,4.95
2022-08-17T10:30:33.093Z,5.05
2022-08-17T10:33:15.412Z,4.82
2022-08-17T10:35:57.239Z,4.38
2022-08-17T10:38:39.315Z,4.85
2022-08-17T10:41:43.701Z,4.20
2022-08-17T10:44:38.902Z,4.60
2022-08-17T10:47:16.549Z,4.40
2022-08-17T10:49:53.631Z,4.07
2022-08-17T10:52:20.137Z,4.53
2022-08-17T10:54:58.497Z,4.30
2022-08-17T10:57:34.149Z,4.22
2022-08-17T11:00:15.474Z,4.25
2022-08-17T11:02:48.785Z,4.05
2022-08-17T11:05:50.278Z,3.88
2022-08-17T11:08:57.451Z,4.03
2022-08-17T11:12:00.992Z,4.28
2022-08-17T11:14:50.727Z,4.07
2022-08-17T11:17:43.107Z,4.65
2022-08-17T11:20:47.157Z,4.47
2022-08-17T11:23:16.961Z,3.83
2022-08-17T11:25:50.825Z,4.05
2022-08-17T11:28:23.854Z,3.50
2022-08-17T11:31:01.358Z,3.85
2022-08-17T11:33:36.754Z,4.10
2022-08-17T11:36:23.389Z,4.03
2022-08-17T11:39:27.470Z,4.35
2022-08-17T11:41:54.508Z,4.68
2022-08-17T11:44:29.907Z,4.88
2022-08-17T11:47:29.846Z,4.90
2022-08-17T11:50:44.226Z,5.35
2022-08-17T11:53:50.025Z,4.70
2022-08-17T11:56:41.084Z,5.03
2022-08-17T11:59:32.692Z,5.10
2022-08-17T12:02:34.951Z,5.53
2022-08-17T12:05:26.016Z,5.13
2022-08-17T12:07:56.088Z,6.50
2022-08-17T12:10:31.814Z,7.93
2022-08-17T12:13:12.752Z,7.20
2022-08-17T12:15:49.719Z,6.05
2022-08-17T12:18:24.525Z,6.70
2022-08-17T12:21:18.264Z,6.90
2022-08-17T12:23:56.200Z,7.53
2022-08-17T12:26:30.222Z,7.25
2022-08-17T12:29:02.603Z,6.93
2022-08-17T12:31:36.794Z,7.13
2022-08-17T12:34:04.953Z,6.78
2022-08-17T12:36:33.257Z,7.30
2022-08-17T12:41:45.066Z,8.13
2022-08-17T12:44:12.170Z,7.55
2022-08-17T12:46:51.414Z,7.70
2022-08-17T12:49:26.432Z,7.50
2022-08-17T12:52:07.078Z,8.73
2022-08-17T12:54:50.279Z,8.60
2022-08-17T12:57:42.183Z,7.65
2022-08-17T13:00:17.602Z,7.32
2022-08-17T13:02:48.709Z,7.55
2022-08-17T13:05:27.604Z,7.28
2022-08-17T13:07:57.250Z,7.80
2022-08-17T13:10:32.222Z,7.20
2022-08-17T13:13:04.849Z,8.25
2022-08-17T13:15:44.630Z,7.97
2022-08-17T13:18:39.184Z,8.10
2022-08-17T13:21:23.669Z,8.32
2022-08-17T13:24:07.823Z,7.60
2022-08-17T13:26:36.556Z,8.13
2022-08-17T13:29:25.768Z,9.15
2022-08-17T13:32:15.993Z,7.85
2022-08-17T13:34:59.593Z,8.05
2022-08-17T13:37:36.531Z,8.15
2022-08-17T13:40:09.125Z,8.52
2022-08-17T13:42:52.952Z,8.93
2022-08-17T13:45:35.651Z,8.15
2022-08-17T13:48:29.265Z,7.85
2022-08-17T13:50:55.674Z,8.10
2022-08-17T13:53:37.443Z,8.95
2022-08-17T13:56:43.799Z,10.15
2022-08-17T13:59:52.806Z,9.52
2022-08-17T14:02:15.584Z,9.15
2022-08-17T14:04:45.343Z,8.43
2022-08-17T14:07:12.841Z,7.60
2022-08-17T14:09:58.142Z,8.43
2022-08-17T14:12:27.278Z,9.82
2022-08-17T14:14:56.328Z,9.52
2022-08-17T14:17:24.104Z,9.38
2022-08-17T14:19:51.582Z,10.85
2022-08-17T14:22:40.155Z,11.77
2022-08-17T14:25:10.416Z,13.55
2022-08-17T14:27:51.776Z,14.52
2022-08-17T14:30:22.467Z,16.45
2022-08-17T14:32:51.701Z,18.08
2022-08-17T14:35:19.440Z,16.10
2022-08-17T14:37:45.993Z,15.80
2022-08-17T14:40:15.339Z,15.23
2022-08-17T14:42:46.041Z,14.88
2022-08-17T14:45:31.813Z,14.63
2022-08-17T14:48:04.792Z,16.00
2022-08-17T14:50:32.191Z,14.95
2022-08-17T14:53:03.867Z,17.05
2022-08-17T14:55:31.153Z,18.88
2022-08-17T14:57:57.686Z,18.35
2022-08-17T15:00:24.411Z,17.75
2022-08-17T15:02:54.575Z,17.48
2022-08-17T15:05:26.683Z,16.75
2022-08-17T15:07:53.663Z,16.33
2022-08-17T15:10:20.570Z,16.85
2022-08-17T15:12:47.472Z,17.48
2022-08-17T15:15:15.540Z,17.35
2022-08-17T15:17:44.240Z,17.33
2022-08-17T15:20:17.662Z,15.93
2022-08-17T15:22:45.717Z,19.08
2022-08-17T15:25:13.084Z,15.38
2022-08-17T15:27:40.377Z,18.20
2022-08-17T15:30:08.496Z,18.37
2022-08-17T15:32:38.265Z,18.25
2022-08-17T15:35:06.580Z,17.42
2022-08-17T15:40:03.737Z,20.67
2022-08-17T15:42:30.410Z,20.98
2022-08-17T15:44:57.465Z,21.65
2022-08-17T15:47:24.733Z,20.27
2022-08-17T15:49:55.418Z,18.77
2022-08-17T15:52:26.467Z,18.35
2022-08-17T15:54:56.158Z,20.33
2022-08-17T15:57:24.547Z,19.42
2022-08-17T16:03:15.178Z,19.27
2022-08-17T16:05:22.043Z,21.83
2022-08-17T16:07:51.902Z,25.13
2022-08-17T16:10:19.441Z,24.88
2022-08-17T16:12:48.132Z,27.13
2022-08-17T16:15:15.499Z,26.70
2022-08-17T16:17:42.332Z,29.98
2022-08-17T16:20:20.902Z,27.70
2022-08-17T16:22:49.876Z,29.02
2022-08-17T16:25:49.714Z,27.35
2022-08-17T16:28:10.254Z,29.38
2022-08-17T16:30:38.248Z,30.10
2022-08-17T16:33:05.236Z,28.38
2022-08-17T16:35:31.835Z,27.73
2022-08-17T16:37:58.764Z,30.85
2022-08-17T16:40:27.944Z,27.55
2022-08-17T16:42:55.475Z,29.40
2022-08-17T16:45:36.297Z,29.67
2022-08-17T16:48:02.980Z,30.17
2022-08-17T16:50:29.598Z,29.73
2022-08-17T16:53:10.741Z,28.52
2022-08-17T16:55:38.052Z,29.80
2022-08-17T16:58:05.859Z,26.30
2022-08-17T17:00:33.594Z,30.23
2022-08-17T17:03:22.373Z,27.15
2022-08-17T17:06:01.471Z,31.10
2022-08-17T17:08:35.095Z,30.33
2022-08-17T17:11:15.613Z,28.45
2022-08-17T17:14:02.126Z,28.25
2022-08-17T17:16:28.583Z,29.60
2022-08-17T17:19:17.876Z,29.83
2022-08-17T17:22:25.144Z,25.33
2022-08-17T17:25:20.032Z,25.92
2022-08-17T17:28:01.817Z,26.02
2022-08-17T17:30:39.819Z,31.95
2022-08-17T17:33:10.824Z,32.60
2022-08-17T17:35:50.982Z,35.42
2022-08-17T17:38:40.415Z,34.88
2022-08-17T17:41:16.882Z,33.50
2022-08-17T17:43:43.423Z,34.13
2022-08-17T17:46:33.811Z,32.88
2022-08-17T17:49:00.918Z,31.98
2022-08-17T17:52:07.197Z,30.20
2022-08-17T17:55:04.391Z,30.52
2022-08-17T17:57:55.820Z,28.40
2022-08-17T18:00:26.249Z,28.88
2022-08-17T18:03:01.931Z,30.08
2022-08-17T18:06:06.848Z,29.50
2022-08-17T18:11:24.038Z,27.30
2022-08-17T18:13:57.685Z,27.17
2022-08-17T18:16:27.360Z,26.67
2022-08-17T18:18:57.639Z,29.23
2022-08-17T18:21:34.858Z,28.85
2022-08-17T18:24:04.032Z,27.85
2022-08-17T18:26:33.498Z,25.83
2022-08-17T18:29:01.430Z,27.98
2022-08-17T18:31:28.187Z,27.38
2022-08-17T18:34:46.067Z,26.92
2022-08-17T18:37:08.558Z,27.95
2022-08-17T18:39:37.207Z,26.88
2022-08-17T18:42:07.653Z,27.83
2022-08-17T18:44:39.692Z,26.75
2022-08-17T18:47:25.458Z,29.08
2022-08-17T18:50:19.375Z,26.02
2022-08-17T18:52:48.408Z,27.55
2022-08-17T18:55:20.999Z,28.70
2022-08-17T18:57:56.705Z,25.77
2022-08-17T19:00:40.570Z,28.13
2022-08-17T19:03:16.177Z,26.17
2022-08-17T19:06:13.737Z,26.05
2022-08-17T19:08:40.619Z,26.92
2022-08-17T19:11:15.676Z,27.33
2022-08-17T19:14:00.934Z,25.35
2022-08-17T19:16:52.888Z,25.77
2022-08-17T19:19:30.845Z,26.30
2022-08-17T19:22:06.867Z,27.50
2022-08-17T19:24:35.151Z,25.08
2022-08-17T19:27:16.208Z,25.05
2022-08-17T19:30:08.048Z,25.75
2022-08-17T19:32:35.779Z,24.17
2022-08-17T19:35:05.867Z,27.48
2022-08-17T19:37:42.204Z,23.90
2022-08-17T19:40:24.438Z,25.08
2022-08-17T19:43:41.489Z,24.63
2022-08-17T19:46:26.348Z,26.15
2022-08-17T19:48:52.876Z,24.63
2022-08-17T19:51:40.553Z,26.27
2022-08-17T19:54:37.974Z,26.95
2022-08-17T19:57:27.269Z,26.83
2022-08-17T20:00:02.950Z,25.73
2022-08-17T20:03:05.871Z,27.52
2022-08-17T20:06:08.534Z,26.27
2022-08-17T20:08:29.208Z,26.85
2022-08-17T20:11:00.650Z,27.20
2022-08-17T20:13:39.593Z,27.58
2022-08-17T20:16:06.622Z,25.20
2022-08-17T20:18:51.615Z,26.67
2022-08-17T20:21:25.516Z,27.17
2022-08-17T20:23:54.354Z,28.33
2022-08-17T20:26:55.539Z,26.98
2022-08-17T20:29:40.006Z,26.90
2022-08-17T20:32:23.497Z,27.20
2022-08-17T20:35:03.806Z,26.85
2022-08-17T20:37:34.315Z,26.98
2022-08-17T20:40:00.927Z,28.25
2022-08-17T20:42:30.974Z,27.67
2022-08-17T20:45:02.807Z,30.13
2022-08-17T20:47:35.438Z,29.98
2022-08-17T20:50:14.965Z,30.30
2022-08-17T20:52:50.844Z,28.77
2022-08-17T20:55:51.365Z,31.25
2022-08-17T20:58:24.338Z,29.45
2022-08-17T21:00:57.122Z,30.02
2022-08-17T21:03:23.794Z,31.90
2022-08-17T21:06:00.242Z,31.92
2022-08-17T21:08:53.187Z,30.60
2022-08-17T21:12:02.364Z,30.63
2022-08-17T21:14:23.791Z,27.55
2022-08-17T21:17:29.578Z,30.00
2022-08-17T21:20:13.302Z,31.23
2022-08-17T21:22:56.908Z,32.25
2022-08-17T21:25:41.296Z,35.22
2022-08-17T21:28:21.799Z,34.33
2022-08-17T21:31:02.466Z,36.03
2022-08-17T21:33:32.169Z,37.10
2022-08-17T21:36:15.126Z,36.53
2022-08-17T21:38:48.750Z,36.75
2022-08-17T21:41:22.112Z,35.08
2022-08-17T21:43:51.360Z,36.83
2022-08-17T21:46:28.819Z,36.72
2022-08-17T21:49:02.180Z,36.10
2022-08-17T21:51:30.839Z,34.50
2022-08-17T21:54:01.259Z,36.00
2022-08-17T21:56:32.955Z,38.65
2022-08-17T21:59:04.286Z,35.13
2022-08-17T22:01:35.095Z,35.63
2022-08-17T22:04:11.561Z,35.90
2022-08-17T22:06:43.110Z,35.90
2022-08-17T22:09:32.031Z,35.40
2022-08-17T22:12:11.316Z,35.05
2022-08-17T22:14:55.966Z,32.83
2022-08-17T22:17:34.370Z,34.65
2022-08-17T22:23:05.109Z,33.60
2022-08-17T22:25:36.161Z,35.92
2022-08-17T22:28:09.084Z,37.65
2022-08-17T22:30:40.176Z,36.80
2022-08-17T22:33:45.777Z,39.35
2022-08-17T22:36:37.272Z,36.83
2022-08-17T22:39:07.438Z,35.22
2022-08-17T22:41:55.823Z,35.67
2022-08-17T22:44:29.452Z,39.53
2022-08-17T22:47:11.327Z,37.22
2022-08-17T22:49:54.085Z,37.13
2022-08-17T22:53:02.361Z,37.17
2022-08-17T22:55:51.680Z,35.25
2022-08-17T22:58:42.233Z,37.03
2022-08-17T23:01:32.623Z,40.40
2022-08-17T23:04:08.467Z,37.95
2022-08-17T23:06:37.999Z,36.33
2022-08-17T23:09:06.823Z,38.60
2022-08-17T23:11:48.703Z,37.38
2022-08-17T23:14:19.181Z,39.78
2022-08-17T23:16:46.599Z,39.60
2022-08-17T23:19:16.729Z,40.85
2022-08-17T23:21:47.106Z,40.72
2022-08-17T23:24:21.660Z,40.53
2022-08-17T23:26:48.298Z,43.30
2022-08-17T23:29:14.929Z,41.63
2022-08-17T23:31:41.671Z,42.45
2022-08-17T23:34:13.985Z,42.58
2022-08-17T23:36:42.004Z,42.90
2022-08-17T23:39:08.554Z,43.03
2022-08-17T23:41:39.829Z,44.05
2022-08-17T23:44:07.256Z,45.03
2022-08-17T23:46:34.600Z,42.53
2022-08-17T23:49:01.371Z,43.90
2022-08-17T23:51:33.435Z,43.05
2022-08-17T23:54:11.614Z,44.28
2022-08-17T23:56:47.136Z,43.15
2022-08-17T23:59:16.255Z,44.40
